x

Half Moon Bay - 24nm Ssw Of San Francisco, Ca (46012) Wave Buoy

3:50am - Sun 23rd Jul 2017 All times are PDT. -7 hours from GMT.

  • Sig Wave height 4.3ft
  • Swell Direction
  • Peak Period 8s
  • Average Period 6s
  • Wind
    11mph, 13mph gusts
  • Sea Temp 57°f
  • Air Temp 54°f
  • Sea Pressure 1010.6mb
  • Half Moon Bay - 24nm Ssw Of San Francisco, Ca
  • Half Moon Bay - 24nm Ssw Of San Francisco, Ca

More Historic Weather Station data

Upgrade to MSW Pro to gain access to the past 30 days of data for over 8000 Wavebouys and Weather Stations around the globe.

Join Pro

Comparision Forecast

View Surf forecast
   
Sun 07/23 3:50am 4.5ft 8s 6s 11 13 mph 1010.6mb 57f 54f
2:50am 4.5ft 6s 6s 13 13 mph 1010.6mb 57f 54f
1:50am 4ft 7s 6s 16 18 mph 1010.8mb 57f 55f
12:50am 4.5ft 8s 6s 11 13 mph 1011.1mb 57f 57f
Sat 07/22 11:50pm 4.5ft 8s 6s 7 9 mph 1011.4mb 57f 57f
10:50pm 4.5ft 8s 6s 7 9 mph 1011.5mb 57f 57f
9:50pm 4.5ft 8s 6s 11 13 mph 1011.5mb 57f 57f
8:50pm 5ft 8s 6s 11 13 mph 1011.3mb 58f 57f
7:50pm 5ft 8s 6s 11 16 mph 1011.2mb 58f 56f
6:50pm 4.5ft 8s 6s 16 18 mph 1011.1mb 58f 56f
5:50pm 4.5ft 8s 6s 13 16 mph 1011.4mb 58f 56f
4:50pm 4ft 8s 6s 13 16 mph 1011.8mb 58f 56f
3:50pm 4.5ft 8s 6s 16 18 mph 1012mb 58f 55f
2:50pm 4.5ft 8s 6s 13 16 mph 1012.5mb 58f 55f
1:50pm 5ft 8s 6s 11 13 mph 1013.1mb 58f 56f
12:50pm 5ft 8s 6s 9 11 mph 1013.7mb 57f 55f
11:50am 6ft 8s 6s 7 7 mph 1013.9mb 57f 54f
10:50am 6ft 8s 6s 11 11 mph 1013.9mb 57f 54f
9:50am 6.5ft 8s 6s 16 18 mph 1013.9mb 57f 53f
8:50am 6ft 8s 6s 18 20 mph 1014.3mb 57f 54f
7:50am 6ft 8s 6s 20 25 mph 1013.6mb 57f 54f
6:50am 5.5ft 8s 6s 18 22 mph 1013.3mb 57f 55f
5:50am 5ft 8s 6s 18 22 mph 1013.4mb 57f 56f
4:50am 5ft 8s 6s 11 16 mph 1013.3mb 57f 56f
3:50am 5ft 7s 6s 11 13 mph 1013.5mb 57f 56f
2:50am 5ft 8s 6s 9 11 mph 1013.8mb 57f 56f
1:50am 6ft 7s 6s 7 9 mph 1014.3mb 57f 56f
12:50am 6ft 7s 6s 9 11 mph 1014.6mb 57f 57f
Fri 07/21 11:50pm 6ft 8s 5s 9 11 mph 1014.8mb 57f 57f
10:50pm 6ft 7s 6s 11 11 mph 1015.2mb 57f 57f
9:50pm 6.5ft 7s 6s 11 13 mph 1015.1mb 58f 57f
8:50pm 6ft 7s 6s 11 16 mph 1015mb 58f 57f
7:50pm 5.5ft 7s 6s 13 18 mph 1015mb 58f 58f
6:50pm 5ft 7s 5s 16 18 mph 1015.3mb 58f 58f
5:50pm 5.5ft 7s 6s 13 16 mph 1015.7mb 58f 58f
4:50pm 5ft 7s 6s 13 16 mph 1016.3mb 58f 58f
3:50pm 5ft 7s 5s 13 16 mph 1016.5mb 57f 57f
2:50pm 5.5ft 7s 6s 13 16 mph 1016.8mb 57f 57f
1:50pm 6ft 7s 6s 18 22 mph 1016.6mb 57f 57f
12:50pm 6ft 7s 6s 16 20 mph 1017.2mb 57f 57f
11:50am 6.5ft 7s 6s 18 22 mph 1017.3mb 57f 57f
10:50am 6.5ft 7s 6s 16 20 mph 1017.2mb 57f 57f
9:50am 7ft 8s 6s 25 29 mph 1016.6mb 57f 57f
8:50am 7ft 7s 6s 18 22 mph 1017.1mb 57f 57f
7:50am 6.5ft 8s 6s 16 18 mph 1016.9mb 56f 57f
6:50am 6.5ft 8s 6s 16 22 mph 1016.8mb 56f 57f
5:50am 6ft 7s 5s 20 25 mph 1016.2mb 56f 57f
4:50am 6ft 7s 6s 22 27 mph 1015.8mb 56f 57f
3:50am 6ft 6s 5s 22 27 mph 1015.6mb 56f 57f
2:50am 6ft 7s 6s 25 29 mph 1015.6mb 56f 57f
1:50am 6.5ft 7s 6s 22 27 mph 1015.9mb 56f 57f
12:50am 6.5ft 7s 6s 22 27 mph 1016.3mb 56f 57f
Thu 07/20 11:50pm 7.5ft 7s 6s 22 29 mph 1016.5mb 56f 57f
10:50pm 6.5ft 6s 6s 25 27 mph 1016.5mb 56f 57f
9:50pm 7.5ft 7s 6s 18 25 mph 1016.9mb 56f 57f
8:50pm 7ft 8s 6s 18 22 mph 1016.9mb 56f 58f
7:50pm 6.5ft 7s 6s 18 22 mph 1016.8mb 56f 58f
6:50pm 6ft 8s 6s 18 22 mph 1016.9mb 55f 58f
5:50pm 6ft 7s 6s 16 18 mph 1017.3mb 55f 58f
4:50pm 6ft 7s 5s 16 20 mph 1017.6mb 55f 57f
3:50pm 6ft 7s 6s 18 22 mph 1017.8mb 55f 57f
2:50pm 5.5ft 7s 6s 18 22 mph 1018.5mb 55f 57f
1:50pm 5.5ft 7s 6s 16 20 mph 1018.8mb 55f 57f
12:50pm 6ft 7s 6s 16 18 mph 1019.2mb 55f 56f
11:50am 6.5ft 7s 6s 18 22 mph 1019.4mb 55f 56f
10:50am 7ft 7s 6s 16 20 mph 1019.3mb 55f 56f
9:50am 7ft 8s 6s 18 22 mph 1018.9mb 55f 56f
8:50am 7ft 7s 6s 18 22 mph 1018.3mb 55f 55f
7:50am 6.5ft 8s 6s 20 22 mph 1018.2mb 55f 55f
6:50am 6ft 7s 6s 20 25 mph 1018mb 55f 55f
5:50am 6ft 7s 6s 22 27 mph 1017.3mb 56f 56f
4:50am 6ft 7s 6s 22 27 mph 1017mb 55f 56f
3:50am 6ft 7s 6s 22 27 mph 1016.8mb 55f 57f
2:50am 6.5ft 7s 6s 16 20 mph 1017mb 55f 57f
1:50am 6.5ft 7s 5s 18 25 mph 1017.1mb 55f 57f
12:50am 6ft 7s 5s 22 29 mph 1016.7mb 55f 57f
Wed 07/19 11:50pm 7ft 7s 6s 22 27 mph 1016.4mb 55f 57f
10:50pm 7ft 7s 5s 25 29 mph 1016.3mb 55f 57f
9:50pm 7ft 8s 6s 22 29 mph 1016.2mb 55f 57f
8:50pm 6.5ft 8s 6s 18 22 mph 1016.2mb 55f 57f
7:50pm 6.5ft 8s 6s 18 20 mph 1016.3mb 55f 57f
6:50pm 6.5ft 7s 6s 18 20 mph 1016mb 55f 57f
5:50pm 6.5ft 8s 6s 16 20 mph 1016.5mb 55f 57f
4:50pm 5.5ft 7s 6s 13 18 mph 1016.9mb 55f 57f
3:50pm 6ft 8s 6s 16 20 mph 1017.2mb 55f 56f
2:50pm 6.5ft 8s 6s 16 18 mph 1017.6mb 55f 56f
1:50pm 6.5ft 7s 6s 16 18 mph 1017.7mb 55f 56f
12:50pm 6ft 8s 6s 16 18 mph 1018.2mb 55f 56f
11:50am 6ft 8s 6s 16 20 mph 1018mb 55f 56f